Time;durP1;ratioP1;P1;durP2;ratioP2;P2;SDS_P1;SDS_P2;PMS_P1;PMS_P2;Temp;Humidity;BMP_temperature;BMP_pressure;BME280_temperature;BME280_humidity;BME280_pressure;Samples;Min_cycle;Max_cycle;Signal;HPM_P1;HPM_P2
2020/12/23 17:33:20;;;;;;;95.80;71.88;;;12.80;99.90;;;;;;5099272;27;20355;-82
2020/12/23 17:35:49;;;;;;;101.50;78.10;;;12.70;99.90;;;;;;5109832;28;20032;-80
2020/12/23 17:38:18;;;;;;;90.70;72.57;;;12.70;99.90;;;;;;5115550;28;20042;-84
2020/12/23 17:40:44;;;;;;;94.80;72.38;;;12.90;99.90;;;;;;5170209;22;20060;-82
2020/12/23 17:43:10;;;;;;;101.00;72.55;;;12.60;99.90;;;;;;5093113;28;20063;-82
2020/12/23 17:45:36;;;;;;;120.60;92.60;;;12.70;99.90;;;;;;5093302;28;20024;-83
2020/12/23 17:48:04;;;;;;;120.25;89.88;;;12.40;99.90;;;;;;5096000;28;20016;-84
2020/12/23 18:16:24;;;;;;;102.53;76.10;;;12.70;99.90;;;;;;5497050;22;20075;-85
2020/12/23 18:18:51;;;;;;;109.82;82.20;;;12.60;99.90;;;;;;5074950;28;20006;-84
2020/12/23 18:21:18;;;;;;;101.03;79.47;;;12.60;99.90;;;;;;5075381;28;20017;-84
2020/12/23 18:36:41;;;;;;;124.85;94.55;;;12.70;99.90;;;;;;5957179;22;20054;-82
2020/12/23 18:41:55;;;;;;;103.55;81.03;;;12.60;99.90;;;;;;5338646;22;20109;-82
2020/12/23 18:49:32;;;;;;;90.22;73.63;;;12.60;99.90;;;;;;5169540;23;20046;-83
2020/12/23 18:52:04;;;;;;;98.90;77.45;;;12.60;99.90;;;;;;5024710;28;20033;-84
2020/12/23 18:54:30;;;;;;;97.88;77.85;;;12.80;99.90;;;;;;5041671;28;20010;-84
2020/12/23 18:56:57;;;;;;;94.40;71.75;;;12.60;99.90;;;;;;5024576;28;20056;-84
2020/12/23 18:59:23;;;;;;;85.50;65.85;;;11.60;99.90;;;;;;5024596;28;20029;-83
2020/12/23 19:07:00;;;;;;;83.85;63.65;;;12.60;99.90;;;;;;4978877;26;20046;-84
2020/12/23 19:09:26;;;;;;;75.60;62.92;;;12.20;99.90;;;;;;4985397;28;20082;-84
2020/12/23 19:11:52;;;;;;;102.50;71.55;;;12.30;99.90;;;;;;5002051;28;20019;-81
2020/12/23 19:14:20;;;;;;;100.00;77.22;;;12.10;99.90;;;;;;4985461;28;20079;-81
2020/12/23 20:18:31;;;;;;;131.02;97.82;;;12.60;99.90;;;;;;4714070;26;20069;-81
2020/12/23 20:41:40;;;;;;;108.47;81.13;;;12.60;99.90;;;;;;4858593;26;20045;-82
2020/12/23 21:42:14;;;;;;;114.68;85.20;;;12.60;99.90;;;;;;4844022;26;20025;-83
2020/12/23 21:47:11;;;;;;;111.72;85.15;;;12.60;99.90;;;;;;5056600;28;20034;-83
2020/12/23 22:07:45;;;;;;;88.82;66.93;;;12.60;99.90;;;;;;5237892;22;20042;-84
2020/12/23 22:10:11;;;;;;;82.05;60.33;;;12.60;99.90;;;;;;5041326;28;20033;-84
2020/12/23 22:33:15;;;;;;;64.80;49.47;;;12.50;99.90;;;;;;4788591;26;20052;-83
2020/12/23 22:35:41;;;;;;;60.78;46.20;;;12.50;99.90;;;;;;5044738;28;20041;-85
2020/12/23 22:38:07;;;;;;;58.70;47.17;;;12.50;99.90;;;;;;5044589;28;20017;-85
2020/12/23 23:03:34;;;;;;;53.90;40.85;;;12.60;99.90;;;;;;5060348;22;20058;-76
2020/12/23 23:05:59;;;;;;;47.30;36.63;;;12.60;99.90;;;;;;5018401;28;20021;-76
2020/12/23 23:08:25;;;;;;;57.20;39.85;;;12.60;99.90;;;;;;5018542;28;20030;-76
2020/12/23 23:10:51;;;;;;;50.33;39.97;;;12.60;99.90;;;;;;5036514;28;20423;-76
2020/12/23 23:13:20;;;;;;;48.47;37.67;;;12.60;99.90;;;;;;5036004;28;20029;-76
2020/12/23 23:15:46;;;;;;;50.25;37.92;;;12.60;99.90;;;;;;5018663;28;20443;-76
2020/12/23 23:18:11;;;;;;;48.38;36.53;;;12.60;99.90;;;;;;5018066;28;20030;-76
2020/12/23 23:20:40;;;;;;;45.75;34.72;;;12.50;99.90;;;;;;5018064;28;20025;-76
2020/12/23 23:23:06;;;;;;;45.70;36.72;;;12.50;99.90;;;;;;5018124;28;20179;-76
2020/12/23 23:25:32;;;;;;;43.78;34.50;;;12.60;99.90;;;;;;5018002;28;20112;-75
2020/12/23 23:28:01;;;;;;;44.85;33.75;;;12.50;99.90;;;;;;5018080;28;20033;-75
2020/12/23 23:30:27;;;;;;;48.97;36.80;;;12.60;99.90;;;;;;5018095;28;20482;-75
2020/12/23 23:32:56;;;;;;;46.97;35.92;;;12.50;99.90;;;;;;5017723;28;20179;-76
2020/12/23 23:35:23;;;;;;;54.78;41.78;;;12.50;99.90;;;;;;5017634;28;20026;-76
2020/12/23 23:37:53;;;;;;;53.60;43.75;;;12.50;99.90;;;;;;5001436;28;20034;-75
2020/12/23 23:40:21;;;;;;;53.85;41.22;;;12.50;99.90;;;;;;5018090;28;20083;-76
2020/12/23 23:42:47;;;;;;;53.90;40.08;;;12.50;99.90;;;;;;5017821;28;20120;-76
2020/12/23 23:45:14;;;;;;;54.95;42.75;;;12.50;99.90;;;;;;5018082;28;20424;-75
2020/12/23 23:47:40;;;;;;;53.03;41.58;;;12.50;99.90;;;;;;5017636;28;20049;-76
2020/12/23 23:50:12;;;;;;;58.10;40.50;;;12.50;99.90;;;;;;5017595;28;20059;-75
2020/12/23 23:52:38;;;;;;;50.58;40.28;;;12.50;99.90;;;;;;5017278;28;20040;-75
2020/12/23 23:55:06;;;;;;;55.40;43.05;;;12.50;99.90;;;;;;5017411;28;20033;-75
2020/12/23 23:57:33;;;;;;;53.15;40.78;;;12.50;99.90;;;;;;5034825;28;20029;-75
